Time;durP1;ratioP1;P1;durP2;ratioP2;P2;SDS_P1;SDS_P2;PMS_P1;PMS_P2;Temp;Humidity;BMP_temperature;BMP_pressure;BME280_temperature;BME280_humidity;BME280_pressure;Samples;Min_cycle;Max_cycle;Signal;HPM_P1;HPM_P2
2024/01/10 00:01:33;;;;;;;3.40;3.23;;;-0.30;94.10;;;;;;4921606;29;20203;-62
2024/01/10 00:03:58;;;;;;;2.30;2.10;;;-0.40;94.10;;;;;;4926220;29;20437;-62
2024/01/10 00:06:24;;;;;;;3.30;3.03;;;-0.40;94.20;;;;;;4923796;29;20187;-61
2024/01/10 00:08:50;;;;;;;3.07;2.40;;;-0.30;94.20;;;;;;4925547;29;20177;-62
2024/01/10 00:11:17;;;;;;;2.00;1.85;;;-0.10;94.40;;;;;;4925362;29;20181;-63
2024/01/10 00:13:43;;;;;;;3.90;3.25;;;0.00;94.20;;;;;;4925677;29;20210;-63
2024/01/10 00:16:11;;;;;;;8.77;3.03;;;0.00;94.00;;;;;;4906944;29;20199;-63
2024/01/10 00:18:39;;;;;;;2.67;2.47;;;0.00;94.00;;;;;;4926189;29;20415;-63
2024/01/10 00:21:04;;;;;;;2.58;2.47;;;0.00;94.00;;;;;;4923766;29;20667;-63
2024/01/10 00:23:30;;;;;;;1.90;1.80;;;0.00;94.10;;;;;;4925189;29;20198;-63
2024/01/10 00:25:56;;;;;;;3.33;3.03;;;0.00;94.30;;;;;;4910414;29;20266;-63
2024/01/10 00:28:22;;;;;;;7.15;3.28;;;0.00;94.30;;;;;;4915880;29;20991;-63
2024/01/10 00:30:48;;;;;;;1.73;1.63;;;0.10;94.40;;;;;;4933537;29;20239;-62
2024/01/10 00:33:14;;;;;;;2.97;2.77;;;0.20;94.40;;;;;;4932397;29;20595;-63
2024/01/10 00:35:39;;;;;;;3.25;2.63;;;0.20;94.20;;;;;;4933560;29;20552;-62
2024/01/10 00:38:05;;;;;;;3.73;3.50;;;0.30;94.00;;;;;;4935189;29;20204;-62
2024/01/10 00:40:31;;;;;;;3.00;2.47;;;0.30;93.90;;;;;;4934861;29;20246;-63
2024/01/10 00:42:57;;;;;;;4.20;3.97;;;0.30;93.80;;;;;;4934641;29;20595;-62
2024/01/10 00:45:22;;;;;;;3.87;3.77;;;0.20;93.90;;;;;;4934167;29;20419;-62
2024/01/10 00:47:51;;;;;;;2.17;1.97;;;0.20;94.00;;;;;;4934963;29;20183;-62
2024/01/10 00:50:17;;;;;;;7.18;4.90;;;0.10;94.20;;;;;;4934197;29;20266;-62
2024/01/10 00:52:44;;;;;;;2.70;2.60;;;0.00;94.30;;;;;;4934673;29;20697;-63
2024/01/10 00:55:10;;;;;;;5.70;4.90;;;0.00;94.40;;;;;;4934678;29;20454;-62
2024/01/10 00:57:37;;;;;;;2.77;2.30;;;0.10;94.40;;;;;;4926090;29;20208;-63
2024/01/10 01:00:07;;;;;;;3.42;2.80;;;0.10;94.50;;;;;;4917630;29;20500;-63
2024/01/10 01:02:33;;;;;;;1.95;1.40;;;0.00;94.50;;;;;;4934547;29;20195;-63
2024/01/10 01:04:58;;;;;;;2.70;2.50;;;0.00;94.60;;;;;;4934643;29;20180;-63
2024/01/10 01:07:24;;;;;;;2.63;2.43;;;-0.10;94.60;;;;;;4934696;29;20267;-62
2024/01/10 01:09:52;;;;;;;3.60;1.57;;;-0.10;94.70;;;;;;4934513;29;20273;-62
2024/01/10 01:12:18;;;;;;;6.57;4.20;;;0.10;94.80;;;;;;4934249;29;20238;-62
2024/01/10 01:14:43;;;;;;;2.43;2.23;;;0.20;94.60;;;;;;4934522;29;20239;-64
2024/01/10 01:17:09;;;;;;;4.57;4.27;;;0.10;94.60;;;;;;4934569;29;20180;-63
2024/01/10 01:19:35;;;;;;;18.90;4.83;;;0.10;94.60;;;;;;4933991;29;20181;-63
2024/01/10 01:22:01;;;;;;;5.60;2.77;;;0.10;94.60;;;;;;4933986;29;20432;-63
2024/01/10 01:24:26;;;;;;;3.20;3.00;;;0.20;94.70;;;;;;4934679;29;20419;-63
2024/01/10 01:26:52;;;;;;;4.30;2.23;;;0.30;94.60;;;;;;4934439;29;20184;-62
2024/01/10 01:29:18;;;;;;;2.83;1.60;;;0.30;94.30;;;;;;4934438;29;20254;-62
2024/01/10 01:31:44;;;;;;;2.25;1.95;;;0.30;94.40;;;;;;4934083;29;20412;-63
2024/01/10 01:34:10;;;;;;;4.83;3.03;;;0.20;94.40;;;;;;4934333;29;20658;-62
2024/01/10 01:36:35;;;;;;;5.90;3.30;;;0.20;94.50;;;;;;4934388;29;20196;-62
2024/01/10 01:39:01;;;;;;;0.93;0.80;;;0.20;94.50;;;;;;4934263;29;20677;-62
2024/01/10 01:41:26;;;;;;;2.83;2.43;;;0.20;94.50;;;;;;4933893;29;20172;-63
2024/01/10 01:43:52;;;;;;;3.80;2.57;;;0.20;94.50;;;;;;4934100;29;20275;-63
2024/01/10 01:46:18;;;;;;;2.77;2.57;;;0.10;94.50;;;;;;4934279;29;20173;-62
2024/01/10 01:48:44;;;;;;;1.63;1.60;;;0.10;94.50;;;;;;4934248;29;20184;-62
2024/01/10 01:51:10;;;;;;;4.93;4.20;;;0.10;94.60;;;;;;4934359;29;20260;-63
2024/01/10 01:53:38;;;;;;;5.63;1.83;;;0.10;94.60;;;;;;4934021;29;20432;-62
2024/01/10 01:56:08;;;;;;;5.10;3.50;;;0.00;94.50;;;;;;4934077;29;20202;-62
2024/01/10 01:58:35;;;;;;;5.95;2.10;;;0.00;94.30;;;;;;4934483;29;20184;-63
2024/01/10 02:01:03;;;;;;;3.25;2.70;;;-0.10;94.20;;;;;;4934587;29;20186;-63
2024/01/10 02:03:31;;;;;;;1.05;1.05;;;-0.30;94.30;;;;;;4937799;29;20800;-62
2024/01/10 02:05:57;;;;;;;14.55;3.47;;;-0.40;94.40;;;;;;4937851;29;20182;-62
2024/01/10 02:08:23;;;;;;;1.10;1.00;;;-0.50;94.70;;;;;;4937809;29;20610;-63
2024/01/10 02:10:49;;;;;;;4.70;3.37;;;-0.60;94.90;;;;;;4937592;29;20225;-62
2024/01/10 02:13:16;;;;;;;2.40;1.37;;;-0.70;95.10;;;;;;4937606;29;20233;-61
2024/01/10 02:15:41;;;;;;;5.55;1.60;;;-0.70;95.20;;;;;;4937702;29;20985;-63
2024/01/10 02:18:07;;;;;;;3.23;2.93;;;-0.70;95.30;;;;;;4937660;29;20257;-63
2024/01/10 02:20:33;;;;;;;6.33;3.07;;;-0.70;95.30;;;;;;4937496;29;20174;-63
2024/01/10 02:22:58;;;;;;;2.63;1.83;;;-0.60;95.30;;;;;;4931472;29;20215;-62
2024/01/10 02:25:24;;;;;;;1.43;1.33;;;-0.60;95.40;;;;;;4918639;29;20200;-63
2024/01/10 02:27:49;;;;;;;2.17;2.07;;;-0.70;95.40;;;;;;4918552;29;20223;-63
2024/01/10 02:30:15;;;;;;;1.57;1.50;;;-0.70;95.60;;;;;;4918406;29;20716;-63
2024/01/10 02:32:41;;;;;;;1.97;1.87;;;-0.80;95.70;;;;;;4918205;29;20256;-62
2024/01/10 02:35:08;;;;;;;1.57;1.47;;;-0.70;95.90;;;;;;4918270;29;20209;-62
2024/01/10 02:37:33;;;;;;;1.90;1.80;;;-0.70;95.90;;;;;;4918281;29;20258;-62
2024/01/10 02:39:59;;;;;;;1.37;1.27;;;-0.50;95.80;;;;;;4918260;29;20677;-62
2024/01/10 02:42:27;;;;;;;3.20;2.53;;;-0.50;95.50;;;;;;4917948;29;20457;-62
2024/01/10 02:44:53;;;;;;;3.25;2.25;;;-0.50;95.60;;;;;;4918196;29;20653;-63
2024/01/10 02:47:18;;;;;;;1.67;0.80;;;-0.50;95.60;;;;;;4918183;29;20186;-62
2024/01/10 02:49:47;;;;;;;1.90;1.80;;;-0.40;95.70;;;;;;4918104;29;20398;-63
2024/01/10 02:52:12;;;;;;;3.70;2.13;;;-0.40;95.60;;;;;;4917788;29;20563;-62
2024/01/10 02:54:38;;;;;;;2.67;2.47;;;-0.40;95.70;;;;;;4918130;29;20215;-63
2024/01/10 02:57:04;;;;;;;2.10;1.83;;;-0.40;95.80;;;;;;4918027;29;20199;-62
2024/01/10 02:59:29;;;;;;;5.70;5.20;;;-0.30;95.90;;;;;;4918041;29;20234;-63
2024/01/10 03:01:55;;;;;;;1.53;1.53;;;-0.20;95.80;;;;;;4917525;29;20437;-62
2024/01/10 03:04:21;;;;;;;1.33;1.23;;;-0.20;95.70;;;;;;4917851;29;20176;-63
2024/01/10 03:06:46;;;;;;;1.57;1.57;;;-0.20;95.70;;;;;;4917849;29;20199;-63
2024/01/10 03:09:12;;;;;;;1.80;1.70;;;-0.10;95.80;;;;;;4916229;29;20595;-63
2024/01/10 03:11:37;;;;;;;5.27;3.43;;;0.00;95.60;;;;;;4916836;29;20281;-63
2024/01/10 03:14:07;;;;;;;3.33;1.60;;;0.10;95.20;;;;;;4917596;29;20170;-62
2024/01/10 03:16:33;;;;;;;1.85;1.70;;;0.00;95.00;;;;;;4917573;29;20657;-63
2024/01/10 03:18:59;;;;;;;3.50;2.90;;;0.00;95.20;;;;;;4917513;29;20176;-63
2024/01/10 03:21:26;;;;;;;1.73;1.63;;;0.00;95.30;;;;;;4917365;29;20238;-62
2024/01/10 03:23:55;;;;;;;2.55;2.45;;;0.00;95.50;;;;;;4917577;29;20230;-62
2024/01/10 03:26:21;;;;;;;6.93;2.70;;;0.10;95.60;;;;;;4917449;29;20187;-62
2024/01/10 03:28:47;;;;;;;1.87;1.63;;;0.10;95.60;;;;;;4917486;29;20171;-63
2024/01/10 03:31:12;;;;;;;1.47;1.37;;;0.10;95.70;;;;;;4917024;29;20542;-63
2024/01/10 03:33:38;;;;;;;1.37;1.27;;;0.10;95.50;;;;;;4917511;29;20575;-63
2024/01/10 03:36:05;;;;;;;2.03;1.93;;;0.20;95.50;;;;;;4917240;29;20721;-63
2024/01/10 03:38:31;;;;;;;11.45;2.80;;;0.20;95.40;;;;;;4917331;29;20189;-62
2024/01/10 03:40:57;;;;;;;4.50;4.30;;;0.30;95.40;;;;;;4917031;29;20325;-63
2024/01/10 03:43:22;;;;;;;2.23;2.13;;;0.30;95.40;;;;;;4916981;29;20212;-63
2024/01/10 03:45:48;;;;;;;0.60;0.60;;;0.40;95.20;;;;;;4917531;29;20176;-62
2024/01/10 03:48:13;;;;;;;3.10;1.90;;;0.40;95.10;;;;;;4917063;29;20192;-62
2024/01/10 03:50:39;;;;;;;2.20;2.10;;;0.40;94.90;;;;;;4916882;29;20183;-62
2024/01/10 03:53:06;;;;;;;2.20;1.90;;;0.50;94.90;;;;;;4911557;29;20208;-63
2024/01/10 03:55:31;;;;;;;4.53;2.20;;;0.50;94.80;;;;;;4916925;29;20562;-63
2024/01/10 03:57:57;;;;;;;4.53;4.20;;;0.40;94.90;;;;;;4916885;29;20309;-63
2024/01/10 04:00:23;;;;;;;2.20;2.10;;;0.30;94.90;;;;;;4916522;29;20224;-63
2024/01/10 04:02:48;;;;;;;2.90;2.70;;;0.30;95.10;;;;;;4916581;29;20220;-62
2024/01/10 04:05:14;;;;;;;4.00;3.70;;;0.40;95.00;;;;;;4916829;29;20184;-62
2024/01/10 04:07:43;;;;;;;0.50;0.50;;;0.30;94.80;;;;;;4916722;29;20212;-63
2024/01/10 04:10:13;;;;;;;2.58;2.22;;;0.20;94.80;;;;;;4916791;29;20184;-63
2024/01/10 04:12:43;;;;;;;1.77;1.65;;;0.10;95.00;;;;;;4916452;29;20218;-63
2024/01/10 04:15:09;;;;;;;2.50;2.30;;;0.10;95.10;;;;;;4916267;29;20206;-62
2024/01/10 04:17:35;;;;;;;3.25;2.88;;;0.00;95.20;;;;;;4916483;29;20275;-63
2024/01/10 04:20:01;;;;;;;6.50;4.67;;;0.00;95.40;;;;;;4916275;29;20250;-63
2024/01/10 04:22:28;;;;;;;1.83;0.80;;;0.00;95.50;;;;;;4916251;29;20451;-62
2024/01/10 04:24:57;;;;;;;4.03;3.65;;;0.00;95.70;;;;;;4915970;29;20417;-62
2024/01/10 04:27:22;;;;;;;1.98;1.88;;;0.10;95.80;;;;;;4916331;29;20658;-63
2024/01/10 04:29:48;;;;;;;1.37;1.27;;;0.20;95.70;;;;;;4916567;29;20190;-63
2024/01/10 04:32:14;;;;;;;1.10;1.00;;;0.30;95.70;;;;;;4915885;29;20294;-62
2024/01/10 04:34:40;;;;;;;1.37;1.13;;;0.30;95.70;;;;;;4916272;29;20208;-63
2024/01/10 04:37:06;;;;;;;2.10;1.90;;;0.40;95.80;;;;;;4916247;29;20512;-63
2024/01/10 04:39:33;;;;;;;4.43;2.28;;;0.40;95.80;;;;;;4916067;29;20176;-62
2024/01/10 04:41:59;;;;;;;2.05;1.95;;;0.50;95.80;;;;;;4915648;29;20217;-63
2024/01/10 04:44:24;;;;;;;3.57;3.37;;;0.50;95.70;;;;;;4916004;29;20190;-63
2024/01/10 04:46:50;;;;;;;1.77;1.67;;;0.40;95.60;;;;;;4915969;29;20196;-64
2024/01/10 04:49:16;;;;;;;1.87;1.77;;;0.50;95.70;;;;;;4916015;29;20663;-64
2024/01/10 04:51:41;;;;;;;9.53;2.80;;;0.50;95.60;;;;;;4915615;29;20233;-64
2024/01/10 04:54:07;;;;;;;1.93;1.83;;;0.40;95.40;;;;;;4915880;29;20180;-63
2024/01/10 04:56:33;;;;;;;2.40;2.30;;;0.40;95.40;;;;;;4915847;29;20211;-63
2024/01/10 04:58:58;;;;;;;1.20;1.20;;;0.40;95.40;;;;;;4916177;29;20234;-63
2024/01/10 05:01:24;;;;;;;0.70;0.70;;;0.40;95.40;;;;;;4915609;29;20181;-64
2024/01/10 05:03:49;;;;;;;1.80;1.33;;;0.40;95.30;;;;;;4915798;29;20200;-63
2024/01/10 05:06:15;;;;;;;1.77;1.77;;;0.40;95.30;;;;;;4915767;29;20661;-63
2024/01/10 05:08:41;;;;;;;2.27;2.10;;;0.30;95.40;;;;;;4915758;29;20702;-63
2024/01/10 05:11:06;;;;;;;1.17;1.10;;;0.20;95.60;;;;;;4915827;29;20182;-64
2024/01/10 05:13:32;;;;;;;0.73;0.70;;;0.20;95.70;;;;;;4915608;29;20208;-63
2024/01/10 05:15:58;;;;;;;1.60;1.50;;;0.20;95.80;;;;;;4915592;29;20290;-62
2024/01/10 05:18:23;;;;;;;0.70;0.70;;;0.30;95.70;;;;;;4915922;29;20288;-63
2024/01/10 05:20:49;;;;;;;3.50;1.87;;;0.20;95.70;;;;;;4915359;29;20408;-63
2024/01/10 05:23:15;;;;;;;1.65;1.42;;;0.20;95.80;;;;;;4915154;29;20666;-63
2024/01/10 05:25:41;;;;;;;0.80;0.63;;;0.10;95.80;;;;;;4915461;29;20183;-63
2024/01/10 05:28:06;;;;;;;4.00;3.63;;;-0.10;95.90;;;;;;4915383;29;20182;-63
2024/01/10 05:30:32;;;;;;;0.93;0.87;;;-0.50;96.20;;;;;;4915721;29;20484;-63
2024/01/10 05:32:58;;;;;;;2.03;1.90;;;-0.60;96.70;;;;;;4915283;29;20692;-63
2024/01/10 05:35:25;;;;;;;2.08;1.98;;;-0.70;97.10;;;;;;4915108;29;20211;-63
2024/01/10 05:37:51;;;;;;;1.33;0.73;;;-0.50;97.30;;;;;;4915429;29;20187;-64
2024/01/10 05:40:18;;;;;;;2.40;2.03;;;-0.50;97.30;;;;;;4915105;29;20183;-63
2024/01/10 05:42:44;;;;;;;1.13;1.13;;;-0.30;97.10;;;;;;4914840;29;20517;-63
2024/01/10 05:45:10;;;;;;;1.27;1.25;;;-0.20;96.90;;;;;;4898476;29;20183;-63
2024/01/10 05:47:36;;;;;;;1.35;1.30;;;-0.10;96.80;;;;;;4898620;29;20202;-63
2024/01/10 05:50:06;;;;;;;2.70;2.50;;;0.00;96.70;;;;;;4914880;29;20267;-64
2024/01/10 05:52:32;;;;;;;2.05;1.95;;;0.00;96.60;;;;;;4914960;29;20565;-63
2024/01/10 05:54:58;;;;;;;1.73;1.48;;;0.10;96.60;;;;;;4914969;29;20702;-63
2024/01/10 05:57:24;;;;;;;4.68;2.55;;;0.10;96.50;;;;;;4914462;29;20685;-62
2024/01/10 05:59:52;;;;;;;1.93;1.83;;;0.20;96.50;;;;;;4914998;29;20180;-64
2024/01/10 06:02:18;;;;;;;3.53;3.13;;;0.20;96.50;;;;;;4914792;29;20187;-63
2024/01/10 06:04:43;;;;;;;2.50;2.30;;;0.30;96.70;;;;;;4914938;29;20191;-64
2024/01/10 06:07:09;;;;;;;1.63;1.53;;;0.40;96.70;;;;;;4915013;29;20694;-63
2024/01/10 06:09:35;;;;;;;2.23;1.70;;;0.40;96.50;;;;;;4915003;29;20676;-63
2024/01/10 06:12:00;;;;;;;1.57;1.47;;;0.30;96.40;;;;;;4914553;29;20201;-64
2024/01/10 06:14:26;;;;;;;1.00;0.90;;;0.40;96.50;;;;;;4915120;29;20208;-64
2024/01/10 06:16:51;;;;;;;2.17;2.07;;;0.40;96.60;;;;;;4914743;29;20182;-64
2024/01/10 06:19:18;;;;;;;3.33;1.63;;;0.40;96.50;;;;;;4915032;29;20188;-63
2024/01/10 06:21:44;;;;;;;1.23;1.23;;;0.50;96.60;;;;;;4914387;29;20529;-64
2024/01/10 06:24:10;;;;;;;1.17;1.17;;;0.60;96.70;;;;;;4914773;29;20188;-63
2024/01/10 06:26:36;;;;;;;0.80;0.80;;;0.60;96.60;;;;;;4914807;29;20170;-63
2024/01/10 06:29:01;;;;;;;0.83;0.73;;;0.70;96.50;;;;;;4914961;29;20189;-63
2024/01/10 06:31:27;;;;;;;1.50;1.40;;;0.70;96.30;;;;;;4914551;29;20273;-64
2024/01/10 06:33:53;;;;;;;3.90;2.00;;;0.80;96.30;;;;;;4914677;29;20189;-63
2024/01/10 06:36:18;;;;;;;0.90;0.90;;;0.90;96.20;;;;;;4914820;29;20747;-64
2024/01/10 06:38:44;;;;;;;2.23;2.10;;;0.80;96.10;;;;;;4914737;29;20179;-63
2024/01/10 06:41:13;;;;;;;4.27;3.33;;;0.90;95.90;;;;;;4914542;29;20184;-62
2024/01/10 06:43:41;;;;;;;2.00;1.90;;;0.80;95.70;;;;;;4898241;29;20604;-62
2024/01/10 06:46:07;;;;;;;2.72;2.55;;;0.80;95.80;;;;;;4914317;29;20184;-64
2024/01/10 06:48:32;;;;;;;1.30;1.20;;;0.80;95.90;;;;;;4917534;29;20282;-64
2024/01/10 06:50:59;;;;;;;2.07;1.87;;;0.80;96.00;;;;;;4918337;29;20415;-64
2024/01/10 06:53:24;;;;;;;0.60;0.60;;;0.70;96.10;;;;;;4917965;29;20227;-63
2024/01/10 06:55:50;;;;;;;3.53;1.77;;;0.70;96.40;;;;;;4918017;29;20271;-63
2024/01/10 06:58:16;;;;;;;6.53;1.73;;;0.80;96.50;;;;;;4918099;29;20176;-63
2024/01/10 07:00:41;;;;;;;1.37;1.27;;;0.80;96.50;;;;;;4917807;29;20668;-63
2024/01/10 07:03:07;;;;;;;3.27;3.03;;;0.90;96.40;;;;;;4917732;29;20437;-63
2024/01/10 07:05:33;;;;;;;0.87;0.87;;;0.90;96.20;;;;;;4917977;29;20185;-63
2024/01/10 07:08:02;;;;;;;2.90;2.80;;;0.90;96.20;;;;;;4917710;29;20472;-64
2024/01/10 07:10:31;;;;;;;1.42;1.42;;;0.90;96.20;;;;;;4917723;29;20926;-63
2024/01/10 07:12:58;;;;;;;5.30;3.08;;;0.90;96.40;;;;;;4917689;29;20217;-63
2024/01/10 07:15:24;;;;;;;1.30;0.88;;;1.00;96.50;;;;;;4917754;29;20245;-63
2024/01/10 07:17:50;;;;;;;3.03;2.00;;;1.00;96.50;;;;;;4917668;29;20208;-63
2024/01/10 07:20:15;;;;;;;0.80;0.80;;;1.00;96.40;;;;;;4917355;29;20423;-64
2024/01/10 07:22:43;;;;;;;0.90;0.90;;;1.00;96.30;;;;;;4917395;29;20524;-63
2024/01/10 07:25:10;;;;;;;0.45;0.45;;;1.00;96.40;;;;;;4917710;29;20202;-64
2024/01/10 07:27:37;;;;;;;1.67;0.65;;;1.10;96.40;;;;;;4917673;29;20189;-63
2024/01/10 07:30:13;;;;;;;0.40;0.40;;;1.10;96.30;;;;;;4917361;29;20200;-64
2024/01/10 07:32:40;;;;;;;0.57;0.43;;;1.00;96.30;;;;;;4917467;29;20211;-63
2024/01/10 07:35:09;;;;;;;0.40;0.40;;;1.00;96.50;;;;;;4936108;29;20299;-64
2024/01/10 07:37:35;;;;;;;0.30;0.30;;;1.10;96.40;;;;;;4936255;29;20186;-64
2024/01/10 07:40:01;;;;;;;0.80;0.80;;;1.10;96.50;;;;;;4936039;29;20176;-64
2024/01/10 07:42:27;;;;;;;0.80;0.80;;;1.10;96.70;;;;;;4935913;29;20312;-63
2024/01/10 07:44:53;;;;;;;0.40;0.40;;;1.10;96.60;;;;;;4936102;29;20650;-63
2024/01/10 07:47:19;;;;;;;0.47;0.47;;;1.10;96.50;;;;;;4936101;29;20181;-63
2024/01/10 07:49:45;;;;;;;0.95;0.60;;;1.20;96.60;;;;;;4935875;29;20188;-64
2024/01/10 07:52:10;;;;;;;0.53;0.53;;;1.10;96.50;;;;;;4935799;29;20584;-64
2024/01/10 07:54:36;;;;;;;0.40;0.40;;;1.10;96.60;;;;;;4935916;29;20215;-63
2024/01/10 07:57:02;;;;;;;1.27;1.17;;;1.20;96.70;;;;;;4935958;29;20174;-63
2024/01/10 07:59:27;;;;;;;1.10;1.10;;;1.20;96.80;;;;;;4935852;29;20576;-63
2024/01/10 08:01:58;;;;;;;1.13;1.13;;;1.10;96.60;;;;;;4935400;29;20228;-63
2024/01/10 08:04:24;;;;;;;1.80;1.70;;;1.10;96.70;;;;;;4935989;29;20270;-63
2024/01/10 08:06:50;;;;;;;8.80;1.95;;;1.10;96.70;;;;;;4935918;29;20185;-63
2024/01/10 08:09:16;;;;;;;1.10;0.97;;;1.00;96.50;;;;;;4935600;29;20562;-63
2024/01/10 08:11:41;;;;;;;1.43;1.37;;;1.00;96.60;;;;;;4937691;29;20173;-64
2024/01/10 08:14:07;;;;;;;1.37;1.27;;;1.10;96.80;;;;;;4935003;29;20685;-64
2024/01/10 08:16:32;;;;;;;1.07;1.07;;;1.30;96.90;;;;;;4934492;29;20178;-64
2024/01/10 08:18:58;;;;;;;2.37;2.10;;;1.40;96.50;;;;;;4935546;29;20186;-64
2024/01/10 08:21:25;;;;;;;1.45;1.15;;;1.60;95.70;;;;;;4931695;29;20653;-64
2024/01/10 08:23:50;;;;;;;1.20;1.00;;;1.50;95.20;;;;;;4925228;29;20227;-63
2024/01/10 08:26:16;;;;;;;1.53;1.43;;;1.60;95.10;;;;;;4926655;29;20179;-63
2024/01/10 08:28:42;;;;;;;2.83;2.70;;;1.60;95.10;;;;;;4926235;29;20414;-63
2024/01/10 08:31:08;;;;;;;2.23;2.13;;;1.60;95.10;;;;;;4924069;29;20452;-63
2024/01/10 08:33:34;;;;;;;1.58;1.20;;;1.60;95.30;;;;;;4912400;29;20269;-63
2024/01/10 08:36:00;;;;;;;0.93;0.93;;;1.60;95.50;;;;;;4924224;29;20202;-63
2024/01/10 08:38:27;;;;;;;3.93;3.60;;;1.80;95.80;;;;;;4925875;29;20672;-63
2024/01/10 08:40:52;;;;;;;2.85;1.30;;;2.00;95.70;;;;;;4925272;29;20171;-65
2024/01/10 08:43:18;;;;;;;2.43;2.23;;;2.20;95.60;;;;;;4926576;29;20221;-63
2024/01/10 08:45:44;;;;;;;1.17;1.17;;;2.30;95.10;;;;;;4929060;29;20501;-63
2024/01/10 08:48:11;;;;;;;2.30;2.20;;;2.30;94.70;;;;;;4929495;29;20188;-64
2024/01/10 08:50:37;;;;;;;2.70;2.50;;;2.40;95.00;;;;;;4925803;29;20505;-63
2024/01/10 08:53:05;;;;;;;2.43;1.87;;;2.50;95.00;;;;;;4918588;29;20282;-63
2024/01/10 08:55:34;;;;;;;2.35;2.25;;;2.60;95.20;;;;;;4924897;29;20197;-63
2024/01/10 08:57:59;;;;;;;3.33;2.00;;;2.70;94.80;;;;;;4923699;29;20609;-63
2024/01/10 09:00:25;;;;;;;3.20;2.60;;;2.80;94.80;;;;;;4925053;29;20175;-63
2024/01/10 09:02:52;;;;;;;3.20;2.90;;;2.80;94.80;;;;;;4924925;29;20202;-63
2024/01/10 09:05:18;;;;;;;2.05;1.35;;;2.80;94.60;;;;;;4919912;29;20193;-64
2024/01/10 09:07:44;;;;;;;1.67;1.55;;;2.90;94.70;;;;;;4915651;29;20197;-63
2024/01/10 09:10:10;;;;;;;2.90;1.60;;;3.00;94.50;;;;;;4915145;29;20179;-64
2024/01/10 09:12:36;;;;;;;1.50;1.45;;;3.40;94.80;;;;;;4915398;29;20450;-63
2024/01/10 09:15:02;;;;;;;3.20;2.10;;;3.50;94.70;;;;;;4915466;29;20199;-64
2024/01/10 09:17:28;;;;;;;2.53;2.25;;;3.60;94.10;;;;;;4915606;29;20411;-64
2024/01/10 09:19:54;;;;;;;2.50;1.90;;;3.70;93.90;;;;;;4915575;29;20295;-63
2024/01/10 09:22:19;;;;;;;1.80;1.70;;;3.90;94.30;;;;;;4915285;29;20221;-63
2024/01/10 09:24:45;;;;;;;0.80;0.80;;;4.20;94.00;;;;;;4915567;29;20594;-63
2024/01/10 09:27:11;;;;;;;2.20;1.43;;;4.30;93.70;;;;;;4915557;29;20183;-63
2024/01/10 09:29:37;;;;;;;1.67;1.25;;;4.30;94.40;;;;;;4915373;29;20571;-63
2024/01/10 09:32:03;;;;;;;1.27;1.20;;;4.40;94.60;;;;;;4915372;29;20199;-64
2024/01/10 09:34:29;;;;;;;1.90;1.10;;;4.60;94.40;;;;;;4915459;29;20285;-63
2024/01/10 09:36:55;;;;;;;0.60;0.60;;;4.60;94.50;;;;;;4915328;29;20443;-64
2024/01/10 09:39:21;;;;;;;0.40;0.40;;;4.70;95.20;;;;;;4915808;29;20231;-64
2024/01/10 09:41:48;;;;;;;0.70;0.70;;;4.90;95.50;;;;;;4914900;29;20701;-64
2024/01/10 09:44:17;;;;;;;1.15;1.05;;;4.90;95.30;;;;;;4915218;29;20203;-64
2024/01/10 09:46:50;;;;;;;0.38;0.38;;;4.90;95.20;;;;;;4915261;29;20187;-64
2024/01/10 09:49:17;;;;;;;0.68;0.68;;;4.70;95.50;;;;;;4915347;29;20174;-63
2024/01/10 09:51:43;;;;;;;0.38;0.38;;;4.70;95.70;;;;;;4914905;29;20195;-63
2024/01/10 09:54:09;;;;;;;0.50;0.45;;;4.50;95.90;;;;;;4915250;29;20175;-63
2024/01/10 09:56:34;;;;;;;0.30;0.30;;;4.50;96.10;;;;;;4915208;29;20229;-63
2024/01/10 09:59:04;;;;;;;0.40;0.40;;;4.60;96.60;;;;;;4915134;29;20185;-60
2024/01/10 10:01:31;;;;;;;0.68;0.45;;;4.90;96.60;;;;;;4915099;29;20613;-64
2024/01/10 10:03:58;;;;;;;0.40;0.40;;;5.20;96.60;;;;;;4915168;29;20199;-63
2024/01/10 10:06:24;;;;;;;0.40;0.40;;;5.70;96.20;;;;;;4915259;29;20605;-64
2024/01/10 10:08:49;;;;;;;0.40;0.40;;;6.10;95.30;;;;;;4915146;29;20181;-64
2024/01/10 10:11:15;;;;;;;0.30;0.30;;;6.40;95.00;;;;;;4915175;29;20263;-64
2024/01/10 10:13:41;;;;;;;0.60;0.60;;;6.50;94.50;;;;;;4931022;29;20208;-64
2024/01/10 10:16:09;;;;;;;0.40;0.40;;;6.50;94.70;;;;;;4933991;29;20213;-63
2024/01/10 10:18:35;;;;;;;1.23;0.70;;;6.60;94.20;;;;;;4934126;29;20207;-63
2024/01/10 10:21:12;;;;;;;0.40;0.40;;;6.50;94.30;;;;;;4933675;29;20177;-63
2024/01/10 10:23:40;;;;;;;0.60;0.60;;;6.60;94.60;;;;;;4936970;29;20675;-63
2024/01/10 10:26:22;;;;;;;0.40;0.40;;;7.00;94.60;;;;;;4937577;29;20182;-63
2024/01/10 10:28:49;;;;;;;0.40;0.40;;;7.40;94.20;;;;;;4932054;29;20221;-64
2024/01/10 10:31:19;;;;;;;0.45;0.45;;;7.70;93.50;;;;;;4918188;29;20182;-63
2024/01/10 10:33:46;;;;;;;0.40;0.40;;;7.30;93.00;;;;;;4918651;29;20331;-63
2024/01/10 10:36:13;;;;;;;0.52;0.52;;;7.20;93.30;;;;;;4918313;29;20644;-63
2024/01/10 10:38:39;;;;;;;0.40;0.40;;;7.30;93.30;;;;;;4917854;29;20193;-63
2024/01/10 10:41:15;;;;;;;0.40;0.40;;;7.50;93.50;;;;;;4917757;29;20695;-64
2024/01/10 10:43:42;;;;;;;1.27;0.75;;;7.70;93.10;;;;;;4918320;29;20450;-63
2024/01/10 10:46:09;;;;;;;0.38;0.38;;;7.80;92.70;;;;;;4918385;29;20194;-63
2024/01/10 10:48:36;;;;;;;0.82;0.82;;;7.80;92.50;;;;;;4918199;29;20175;-64
2024/01/10 10:51:11;;;;;;;0.50;0.50;;;7.80;92.70;;;;;;4917776;29;20185;-64
2024/01/10 10:53:38;;;;;;;0.68;0.68;;;7.90;92.70;;;;;;4918076;29;20490;-63
2024/01/10 10:56:07;;;;;;;0.65;0.60;;;7.90;92.20;;;;;;4917992;29;20222;-64
2024/01/10 10:58:44;;;;;;;0.50;0.50;;;8.10;92.60;;;;;;4918086;29;20167;-64
2024/01/10 11:01:11;;;;;;;1.70;1.42;;;8.10;92.00;;;;;;4917668;29;20179;-64
2024/01/10 11:03:48;;;;;;;0.60;0.60;;;7.90;92.00;;;;;;4917910;29;20679;-64
2024/01/10 11:06:14;;;;;;;0.50;0.47;;;7.60;92.30;;;;;;4916970;29;20217;-64
2024/01/10 11:09:18;;;;;;;0.60;0.60;;;7.60;92.80;;;;;;4918012;29;20608;-64
2024/01/10 11:12:27;;;;;;;0.63;0.57;;;7.70;92.70;;;;;;4858997;29;20185;-64
2024/01/10 11:15:33;;;;;;;0.40;0.40;;;7.40;92.40;;;;;;4859425;29;20235;-64
2024/01/10 11:18:37;;;;;;;0.70;0.70;;;7.20;93.10;;;;;;4901269;29;20190;-64
2024/01/10 11:21:27;;;;;;;0.30;0.30;;;7.20;93.30;;;;;;4917420;29;20182;-63
2024/01/10 11:23:59;;;;;;;0.47;0.47;;;7.30;93.20;;;;;;4917584;29;20243;-63
2024/01/10 11:26:25;;;;;;;0.50;0.50;;;7.30;93.40;;;;;;4917554;29;20194;-64
2024/01/10 11:28:50;;;;;;;1.33;0.90;;;7.30;93.40;;;;;;4917468;29;20179;-63
2024/01/10 11:31:28;;;;;;;0.40;0.40;;;7.30;93.20;;;;;;4917299;29;20446;-63
2024/01/10 11:33:56;;;;;;;0.63;0.50;;;7.30;93.10;;;;;;4916933;29;20703;-64
2024/01/10 11:36:26;;;;;;;0.40;0.40;;;7.10;93.10;;;;;;4917333;29;20298;-64
2024/01/10 11:38:53;;;;;;;0.40;0.40;;;7.10;93.40;;;;;;4917254;29;20206;-64
2024/01/10 11:41:24;;;;;;;0.30;0.30;;;6.90;93.60;;;;;;4917066;29;20185;-63
2024/01/10 11:44:17;;;;;;;0.40;0.40;;;6.80;93.60;;;;;;4900190;29;20217;-63
2024/01/10 11:46:48;;;;;;;1.05;1.00;;;6.60;93.80;;;;;;4917371;29;20611;-62
2024/01/10 11:49:18;;;;;;;2.28;0.65;;;6.50;94.00;;;;;;4917071;29;20527;-64
2024/01/10 11:51:45;;;;;;;0.50;0.43;;;6.40;94.20;;;;;;4917038;29;20183;-63
2024/01/10 11:54:11;;;;;;;0.40;0.40;;;6.10;94.30;;;;;;4917170;29;20174;-63
2024/01/10 11:56:41;;;;;;;0.40;0.40;;;5.90;94.50;;;;;;4916998;29;20608;-64
2024/01/10 11:59:10;;;;;;;0.50;0.50;;;5.70;94.80;;;;;;4916954;29;20174;-64
2024/01/10 12:01:38;;;;;;;0.40;0.40;;;5.40;95.50;;;;;;4916423;29;20684;-63
2024/01/10 12:04:04;;;;;;;0.50;0.50;;;5.20;96.00;;;;;;4916849;29;20207;-63
2024/01/10 12:06:32;;;;;;;0.85;0.80;;;4.90;96.20;;;;;;4917015;29;20243;-63
2024/01/10 12:08:59;;;;;;;0.40;0.40;;;4.90;96.60;;;;;;4916843;29;20436;-63
2024/01/10 12:11:25;;;;;;;0.40;0.40;;;4.90;96.70;;;;;;4916597;29;20557;-63
2024/01/10 12:13:51;;;;;;;0.50;0.50;;;5.10;96.80;;;;;;4916651;29;20228;-63
2024/01/10 12:16:17;;;;;;;0.40;0.40;;;5.10;96.70;;;;;;4916619;29;20734;-63
2024/01/10 12:18:43;;;;;;;0.40;0.40;;;4.90;96.70;;;;;;4916740;29;20258;-63
2024/01/10 12:21:10;;;;;;;1.20;0.75;;;4.60;96.90;;;;;;4916402;29;20173;-63
2024/01/10 12:23:38;;;;;;;0.57;0.57;;;4.60;97.10;;;;;;4916506;29;20656;-63
2024/01/10 12:26:14;;;;;;;0.70;0.70;;;4.70;97.20;;;;;;4916499;29;20171;-63
2024/01/10 12:28:52;;;;;;;0.75;0.63;;;4.80;97.10;;;;;;4916487;29;20183;-63
2024/01/10 12:31:18;;;;;;;2.75;2.65;;;4.80;96.90;;;;;;4916180;29;20680;-63
2024/01/10 12:33:44;;;;;;;1.80;1.57;;;4.80;96.90;;;;;;4916298;29;20207;-63
2024/01/10 12:36:11;;;;;;;2.50;2.00;;;4.80;96.90;;;;;;4916246;29;20203;-64
2024/01/10 12:38:40;;;;;;;2.15;1.10;;;4.80;97.00;;;;;;4916219;29;20411;-64
2024/01/10 12:41:08;;;;;;;1.52;1.05;;;4.80;97.00;;;;;;4915899;29;20187;-64
2024/01/10 12:43:35;;;;;;;1.70;1.60;;;4.60;96.90;;;;;;4915674;29;20735;-63
2024/01/10 12:46:04;;;;;;;2.38;2.17;;;4.30;97.20;;;;;;4915056;29;20241;-62
2024/01/10 12:48:30;;;;;;;3.70;1.85;;;4.20;97.60;;;;;;4916042;29;20176;-63
2024/01/10 12:50:57;;;;;;;1.15;1.05;;;4.30;97.70;;;;;;4915740;29;20194;-63
2024/01/10 12:53:22;;;;;;;2.55;2.35;;;4.30;97.80;;;;;;4915988;29;20692;-62
2024/01/10 12:55:48;;;;;;;1.03;1.03;;;4.40;97.80;;;;;;4915873;29;20217;-61